Time;durP1;ratioP1;P1;durP2;ratioP2;P2;SDS_P1;SDS_P2;PMS_P1;PMS_P2;Temp;Humidity;BMP_temperature;BMP_pressure;BME280_temperature;BME280_humidity;BME280_pressure;Samples;Min_cycle;Max_cycle;Signal;HPM_P1;HPM_P2
2024/02/23 00:00:49;;;;;;;0.30;0.30;;;;;;;;;;5095297;28;20253;-66
2024/02/23 00:03:14;;;;;;;0.00;0.00;;;;;;;;;;5093787;28;20248;-66
2024/02/23 00:05:39;;;;;;;0.10;0.10;;;;;;;;;;5092754;28;20448;-66
2024/02/23 00:08:04;;;;;;;0.00;0.00;;;;;;;;;;5093234;28;20326;-66
2024/02/23 00:10:30;;;;;;;0.00;0.00;;;;;;;;;;5095021;28;20268;-66
2024/02/23 00:12:56;;;;;;;0.00;0.00;;;;;;;;;;5084426;28;20024;-66
2024/02/23 00:15:21;;;;;;;0.00;0.00;;;;;;;;;;5086248;28;20276;-66
2024/02/23 00:17:46;;;;;;;0.10;0.10;;;;;;;;;;5080249;28;20472;-66
2024/02/23 00:20:11;;;;;;;0.00;0.00;;;;;;;;;;5075372;28;20020;-66
2024/02/23 00:22:37;;;;;;;0.00;0.00;;;;;;;;;;5085717;28;20408;-66
2024/02/23 00:25:02;;;;;;;0.28;0.28;;;;;;;;;;5088954;28;20032;-66
2024/02/23 00:27:27;;;;;;;0.00;0.00;;;;;;;;;;5075065;28;20211;-66
2024/02/23 00:29:53;;;;;;;0.00;0.00;;;;;;;;;;5075009;28;20024;-66
2024/02/23 00:32:18;;;;;;;0.00;0.00;;;;;;;;;;5075996;28;20293;-66
2024/02/23 00:34:45;;;;;;;0.17;0.17;;;;;;;;;;5078153;28;20024;-66
2024/02/23 00:37:10;;;;;;;0.45;0.15;;;;;;;;;;5076066;28;20102;-66
2024/02/23 00:39:37;;;;;;;0.00;0.00;;;;;;;;;;5094829;28;20154;-66
2024/02/23 00:42:02;;;;;;;0.00;0.00;;;;;;;;;;5084366;28;20051;-66
2024/02/23 00:44:28;;;;;;;0.00;0.00;;;;;;;;;;5082352;28;20035;-66
2024/02/23 00:46:53;;;;;;;0.00;0.00;;;;;;;;;;5093876;28;20056;-66
2024/02/23 00:49:18;;;;;;;0.00;0.00;;;;;;;;;;5094249;28;20028;-66
2024/02/23 00:51:44;;;;;;;0.10;0.10;;;;;;;;;;5094786;28;20077;-66
2024/02/23 00:54:09;;;;;;;0.10;0.10;;;;;;;;;;5094841;28;20028;-66
2024/02/23 00:56:34;;;;;;;0.00;0.00;;;;;;;;;;5077970;28;20336;-66
2024/02/23 00:59:00;;;;;;;0.10;0.10;;;;;;;;;;5074572;28;20257;-66
2024/02/23 01:01:26;;;;;;;0.10;0.10;;;;;;;;;;5074371;28;20095;-66
2024/02/23 01:03:51;;;;;;;0.00;0.00;;;;;;;;;;5074199;28;20328;-66
2024/02/23 01:06:17;;;;;;;0.00;0.00;;;;;;;;;;5090667;28;20107;-66
2024/02/23 01:08:42;;;;;;;0.00;0.00;;;;;;;;;;5074478;28;20024;-66
2024/02/23 01:11:07;;;;;;;0.00;0.00;;;;;;;;;;5074333;28;20418;-66
2024/02/23 01:13:33;;;;;;;0.00;0.00;;;;;;;;;;5074105;28;20020;-66
2024/02/23 01:15:58;;;;;;;0.00;0.00;;;;;;;;;;5086842;28;20276;-66
2024/02/23 01:18:23;;;;;;;0.00;0.00;;;;;;;;;;5092821;28;20376;-66
2024/02/23 01:20:48;;;;;;;0.08;0.08;;;;;;;;;;5082329;28;20249;-66
2024/02/23 01:23:13;;;;;;;0.10;0.10;;;;;;;;;;5074237;28;20027;-66
2024/02/23 01:25:39;;;;;;;0.00;0.00;;;;;;;;;;5091172;28;20043;-66
2024/02/23 01:28:04;;;;;;;0.00;0.00;;;;;;;;;;5093663;28;20476;-66
2024/02/23 01:30:29;;;;;;;0.00;0.00;;;;;;;;;;5093528;28;20020;-66
2024/02/23 01:32:55;;;;;;;1.95;0.35;;;;;;;;;;5093136;28;20115;-67
2024/02/23 01:35:20;;;;;;;0.05;0.05;;;;;;;;;;5083647;28;20078;-67
2024/02/23 01:37:45;;;;;;;0.00;0.00;;;;;;;;;;5085299;28;20056;-67
2024/02/23 01:40:11;;;;;;;0.00;0.00;;;;;;;;;;5073824;28;20020;-67
2024/02/23 01:42:36;;;;;;;0.00;0.00;;;;;;;;;;5073525;28;20016;-66
2024/02/23 01:45:02;;;;;;;0.00;0.00;;;;;;;;;;5073525;28;20059;-67
2024/02/23 01:47:29;;;;;;;0.00;0.00;;;;;;;;;;5065708;28;20627;-67
2024/02/23 01:49:54;;;;;;;0.03;0.03;;;;;;;;;;5073560;28;20047;-67
2024/02/23 01:52:20;;;;;;;0.00;0.00;;;;;;;;;;5073534;28;20028;-67
2024/02/23 01:54:46;;;;;;;0.10;0.10;;;;;;;;;;5073438;28;20052;-66
2024/02/23 01:57:11;;;;;;;0.00;0.00;;;;;;;;;;5089744;28;20024;-66
2024/02/23 01:59:37;;;;;;;0.00;0.00;;;;;;;;;;5074860;28;20020;-66
2024/02/23 02:02:03;;;;;;;0.10;0.10;;;;;;;;;;5073605;28;20460;-67
2024/02/23 02:04:28;;;;;;;0.00;0.00;;;;;;;;;;5073344;28;20031;-67
2024/02/23 02:06:54;;;;;;;0.00;0.00;;;;;;;;;;5064028;28;20020;-66
2024/02/23 02:09:19;;;;;;;0.40;0.40;;;;;;;;;;5073348;28;20025;-66
2024/02/23 02:11:45;;;;;;;0.00;0.00;;;;;;;;;;5073472;28;20051;-66
2024/02/23 02:14:10;;;;;;;0.00;0.00;;;;;;;;;;5092813;28;20748;-67
2024/02/23 02:16:35;;;;;;;0.00;0.00;;;;;;;;;;5092460;28;20047;-67
2024/02/23 02:19:01;;;;;;;0.00;0.00;;;;;;;;;;5073251;28;20021;-67
2024/02/23 02:21:27;;;;;;;0.10;0.10;;;;;;;;;;5074294;28;20096;-67
2024/02/23 02:23:53;;;;;;;0.00;0.00;;;;;;;;;;5071163;28;20288;-67
2024/02/23 02:26:19;;;;;;;0.00;0.00;;;;;;;;;;5091296;28;20059;-67
2024/02/23 02:28:44;;;;;;;0.00;0.00;;;;;;;;;;5088898;28;20439;-67
2024/02/23 02:31:09;;;;;;;0.00;0.00;;;;;;;;;;5080374;28;20093;-66
2024/02/23 02:33:35;;;;;;;0.03;0.03;;;;;;;;;;5099575;28;20051;-67
2024/02/23 02:36:00;;;;;;;0.00;0.00;;;;;;;;;;5092727;28;20017;-67
2024/02/23 02:38:25;;;;;;;0.07;0.07;;;;;;;;;;5080760;28;20249;-67
2024/02/23 02:40:50;;;;;;;0.00;0.00;;;;;;;;;;5080781;28;20724;-67
2024/02/23 02:43:16;;;;;;;0.10;0.10;;;;;;;;;;5083859;28;20609;-67
2024/02/23 02:45:41;;;;;;;0.00;0.00;;;;;;;;;;5098982;28;20081;-66
2024/02/23 02:48:07;;;;;;;0.10;0.10;;;;;;;;;;5086354;28;20057;-66
2024/02/23 02:50:32;;;;;;;0.00;0.00;;;;;;;;;;5087601;28;20119;-67
2024/02/23 02:52:57;;;;;;;0.90;0.63;;;;;;;;;;5079829;28;20029;-66
2024/02/23 02:55:23;;;;;;;0.10;0.10;;;;;;;;;;5079350;28;20032;-66
2024/02/23 02:57:48;;;;;;;0.00;0.00;;;;;;;;;;5080626;28;20332;-67
2024/02/23 03:00:14;;;;;;;0.00;0.00;;;;;;;;;;5079544;28;20048;-67
2024/02/23 03:02:39;;;;;;;0.03;0.03;;;;;;;;;;5079357;28;20024;-67
2024/02/23 03:05:04;;;;;;;1.33;1.23;;;;;;;;;;5079414;28;20028;-67
2024/02/23 03:07:30;;;;;;;0.00;0.00;;;;;;;;;;5087227;28;20284;-67
2024/02/23 03:09:55;;;;;;;0.10;0.10;;;;;;;;;;5098866;28;20430;-67
2024/02/23 03:12:20;;;;;;;0.10;0.10;;;;;;;;;;5099200;28;20073;-67
2024/02/23 03:14:46;;;;;;;0.10;0.10;;;;;;;;;;5098262;28;20031;-67
2024/02/23 03:17:11;;;;;;;0.05;0.05;;;;;;;;;;5084120;28;20252;-67
2024/02/23 03:19:37;;;;;;;0.08;0.08;;;;;;;;;;5099257;28;20039;-67
2024/02/23 03:22:02;;;;;;;0.00;0.00;;;;;;;;;;5089004;28;20021;-67
2024/02/23 03:24:27;;;;;;;0.00;0.00;;;;;;;;;;5090231;28;20024;-67
2024/02/23 03:26:52;;;;;;;0.00;0.00;;;;;;;;;;5099175;28;20055;-67
2024/02/23 03:29:18;;;;;;;0.10;0.10;;;;;;;;;;5088181;28;20032;-67
2024/02/23 03:31:43;;;;;;;0.10;0.10;;;;;;;;;;5079216;28;20344;-67
2024/02/23 03:34:08;;;;;;;0.00;0.00;;;;;;;;;;5079150;28;20299;-67
2024/02/23 03:36:34;;;;;;;0.00;0.00;;;;;;;;;;5097894;28;20264;-66
2024/02/23 03:38:59;;;;;;;0.05;0.05;;;;;;;;;;5098670;28;20248;-67
2024/02/23 03:41:24;;;;;;;0.00;0.00;;;;;;;;;;5095179;28;20066;-67
2024/02/23 03:43:50;;;;;;;0.00;0.00;;;;;;;;;;5094196;28;20702;-67
2024/02/23 03:46:16;;;;;;;0.10;0.10;;;;;;;;;;5095508;28;20256;-67
2024/02/23 03:48:41;;;;;;;0.00;0.00;;;;;;;;;;5086113;28;20040;-66
2024/02/23 03:51:08;;;;;;;0.00;0.00;;;;;;;;;;5075948;28;20391;-67
2024/02/23 03:53:33;;;;;;;0.08;0.08;;;;;;;;;;5076010;28;20488;-67
2024/02/23 03:55:58;;;;;;;0.00;0.00;;;;;;;;;;5093238;28;20036;-67
2024/02/23 03:58:24;;;;;;;0.00;0.00;;;;;;;;;;5095376;28;20471;-67
2024/02/23 04:00:49;;;;;;;0.00;0.00;;;;;;;;;;5093892;28;20647;-67
2024/02/23 04:03:14;;;;;;;0.00;0.00;;;;;;;;;;5094926;28;20056;-67
2024/02/23 04:05:39;;;;;;;0.00;0.00;;;;;;;;;;5095274;28;20273;-66
2024/02/23 04:08:05;;;;;;;0.00;0.00;;;;;;;;;;5095088;28;20016;-67
2024/02/23 04:10:30;;;;;;;0.10;0.10;;;;;;;;;;5086658;28;20273;-66
2024/02/23 04:12:55;;;;;;;0.10;0.10;;;;;;;;;;5095051;28;20074;-67
2024/02/23 04:15:21;;;;;;;0.10;0.10;;;;;;;;;;5085906;28;20021;-67
2024/02/23 04:17:46;;;;;;;0.00;0.00;;;;;;;;;;5075285;28;20438;-66
2024/02/23 04:20:11;;;;;;;0.10;0.10;;;;;;;;;;5091454;28;20322;-67
2024/02/23 04:22:37;;;;;;;0.00;0.00;;;;;;;;;;5076859;28;20530;-67
2024/02/23 04:25:03;;;;;;;0.00;0.00;;;;;;;;;;5075376;28;20107;-66
2024/02/23 04:27:28;;;;;;;0.00;0.00;;;;;;;;;;5075363;28;20103;-67
2024/02/23 04:29:53;;;;;;;0.10;0.10;;;;;;;;;;5075250;28;20020;-67
2024/02/23 04:32:18;;;;;;;0.10;0.10;;;;;;;;;;5091525;28;20036;-67
2024/02/23 04:34:44;;;;;;;0.10;0.10;;;;;;;;;;5074943;28;20273;-66
2024/02/23 04:37:09;;;;;;;0.30;0.30;;;;;;;;;;5091496;28;20099;-66
2024/02/23 04:39:34;;;;;;;0.00;0.00;;;;;;;;;;5094166;28;20292;-66
2024/02/23 04:42:00;;;;;;;0.05;0.05;;;;;;;;;;5091110;28;20249;-66
2024/02/23 04:44:25;;;;;;;0.00;0.00;;;;;;;;;;5075065;28;20020;-66
2024/02/23 04:46:50;;;;;;;0.08;0.08;;;;;;;;;;5074689;28;20025;-67
2024/02/23 04:49:15;;;;;;;0.10;0.10;;;;;;;;;;5073978;28;20113;-66
2024/02/23 04:51:41;;;;;;;0.10;0.10;;;;;;;;;;5089856;28;20035;-66
2024/02/23 04:54:06;;;;;;;0.10;0.10;;;;;;;;;;5074608;28;20099;-67
2024/02/23 04:56:31;;;;;;;0.00;0.00;;;;;;;;;;5074776;28;20265;-66
2024/02/23 04:58:57;;;;;;;0.10;0.10;;;;;;;;;;5074682;28;20491;-66
2024/02/23 05:01:22;;;;;;;0.10;0.10;;;;;;;;;;5075415;28;20107;-67
2024/02/23 05:03:47;;;;;;;0.00;0.00;;;;;;;;;;5074376;28;20025;-67
2024/02/23 05:06:13;;;;;;;0.03;0.03;;;;;;;;;;5056835;28;20115;-66
2024/02/23 05:08:38;;;;;;;0.00;0.00;;;;;;;;;;5094268;28;20276;-66
2024/02/23 05:11:03;;;;;;;0.00;0.00;;;;;;;;;;5093905;28;20253;-67
2024/02/23 05:13:29;;;;;;;0.00;0.00;;;;;;;;;;5075407;28;20272;-66
2024/02/23 05:15:55;;;;;;;0.00;0.00;;;;;;;;;;5085414;28;20024;-66
2024/02/23 05:18:21;;;;;;;0.10;0.10;;;;;;;;;;5094001;28;20024;-67
2024/02/23 05:20:46;;;;;;;0.10;0.10;;;;;;;;;;5093684;28;20652;-66
2024/02/23 05:23:11;;;;;;;0.03;0.03;;;;;;;;;;5087597;28;20008;-66
2024/02/23 05:25:36;;;;;;;0.00;0.00;;;;;;;;;;5083098;28;20261;-67
2024/02/23 05:28:02;;;;;;;0.10;0.10;;;;;;;;;;5073859;28;20268;-66
2024/02/23 05:30:31;;;;;;;0.00;0.00;;;;;;;;;;5074966;28;20066;-67
2024/02/23 05:32:57;;;;;;;0.00;0.00;;;;;;;;;;5093773;28;20475;-66
2024/02/23 05:35:22;;;;;;;0.10;0.10;;;;;;;;;;5088913;28;20029;-67
2024/02/23 05:37:47;;;;;;;0.10;0.10;;;;;;;;;;5093661;28;20098;-66
2024/02/23 05:40:12;;;;;;;0.08;0.08;;;;;;;;;;5094060;28;20249;-66
2024/02/23 05:42:38;;;;;;;0.10;0.10;;;;;;;;;;5094085;28;20417;-66
2024/02/23 05:45:04;;;;;;;1.27;1.08;;;;;;;;;;5093949;28;20241;-67
2024/02/23 05:47:30;;;;;;;0.08;0.08;;;;;;;;;;5093809;28;20166;-67
2024/02/23 05:49:55;;;;;;;0.00;0.00;;;;;;;;;;5093610;28;20131;-67
2024/02/23 05:52:21;;;;;;;0.10;0.10;;;;;;;;;;5093817;28;20028;-67
2024/02/23 05:54:46;;;;;;;0.10;0.10;;;;;;;;;;5093966;28;20027;-66
2024/02/23 05:57:11;;;;;;;0.10;0.10;;;;;;;;;;5093865;28;20501;-67
2024/02/23 05:59:36;;;;;;;0.10;0.10;;;;;;;;;;5093855;28;20237;-65
2024/02/23 06:02:02;;;;;;;0.10;0.10;;;;;;;;;;5093948;28;20241;-65
2024/02/23 06:04:27;;;;;;;0.10;0.10;;;;;;;;;;5093379;28;20027;-65
2024/02/23 06:06:53;;;;;;;0.05;0.05;;;;;;;;;;5093566;28;20047;-65
2024/02/23 06:09:18;;;;;;;0.10;0.10;;;;;;;;;;5093588;28;20032;-65
2024/02/23 06:11:44;;;;;;;0.10;0.10;;;;;;;;;;5093674;28;20435;-65
2024/02/23 06:14:09;;;;;;;0.08;0.08;;;;;;;;;;5093591;28;20027;-66
2024/02/23 06:16:34;;;;;;;0.03;0.03;;;;;;;;;;5093738;28;20066;-65
2024/02/23 06:19:00;;;;;;;0.10;0.10;;;;;;;;;;5093494;28;20024;-65
2024/02/23 06:21:25;;;;;;;0.10;0.10;;;;;;;;;;5093388;28;20102;-65
2024/02/23 06:23:51;;;;;;;0.05;0.05;;;;;;;;;;5093459;28;20020;-66
2024/02/23 06:26:16;;;;;;;0.10;0.10;;;;;;;;;;5093382;28;20023;-65
2024/02/23 06:28:41;;;;;;;0.10;0.10;;;;;;;;;;5093406;28;20257;-66
2024/02/23 06:31:07;;;;;;;0.10;0.10;;;;;;;;;;5093489;28;20380;-65
2024/02/23 06:33:32;;;;;;;0.10;0.10;;;;;;;;;;5093326;28;20020;-65
2024/02/23 06:35:58;;;;;;;0.10;0.10;;;;;;;;;;5093241;28;20035;-65
2024/02/23 06:38:23;;;;;;;0.03;0.03;;;;;;;;;;5093264;28;20009;-65
2024/02/23 06:40:48;;;;;;;0.10;0.10;;;;;;;;;;5093257;28;20024;-66
2024/02/23 06:43:14;;;;;;;0.10;0.10;;;;;;;;;;5093226;28;20024;-65
2024/02/23 06:45:39;;;;;;;0.10;0.10;;;;;;;;;;5093291;28;20051;-65
2024/02/23 06:48:04;;;;;;;0.10;0.10;;;;;;;;;;5092977;28;20248;-65
2024/02/23 06:50:30;;;;;;;0.10;0.10;;;;;;;;;;5092933;28;20127;-65
2024/02/23 06:52:55;;;;;;;0.10;0.10;;;;;;;;;;5093089;28;20024;-65
2024/02/23 06:55:21;;;;;;;0.10;0.10;;;;;;;;;;5092991;28;20028;-65
2024/02/23 06:57:46;;;;;;;0.10;0.10;;;;;;;;;;5093049;28;20259;-65
2024/02/23 07:00:12;;;;;;;0.10;0.10;;;;;;;;;;5093145;28;20032;-65
2024/02/23 07:02:37;;;;;;;0.10;0.10;;;;;;;;;;5093296;28;20101;-65
2024/02/23 07:05:05;;;;;;;0.03;0.03;;;;;;;;;;5093033;28;20521;-65
2024/02/23 07:07:33;;;;;;;0.10;0.10;;;;;;;;;;5093376;28;20024;-66
2024/02/23 07:09:58;;;;;;;0.10;0.10;;;;;;;;;;5093269;28;20051;-66
2024/02/23 07:12:23;;;;;;;1.00;0.55;;;;;;;;;;5092866;28;20460;-66
2024/02/23 07:14:49;;;;;;;0.10;0.10;;;;;;;;;;5093125;28;20467;-67
2024/02/23 07:17:17;;;;;;;0.10;0.10;;;;;;;;;;5096226;28;20016;-67
2024/02/23 07:19:42;;;;;;;0.10;0.10;;;;;;;;;;5096951;28;20639;-67
2024/02/23 07:22:07;;;;;;;0.10;0.10;;;;;;;;;;5096766;28;20027;-67
2024/02/23 07:24:33;;;;;;;0.10;0.10;;;;;;;;;;5096870;28;20031;-67
2024/02/23 07:26:58;;;;;;;0.08;0.08;;;;;;;;;;5096662;28;20027;-66
2024/02/23 07:29:24;;;;;;;0.10;0.10;;;;;;;;;;5096789;28;20024;-67
2024/02/23 07:31:49;;;;;;;0.10;0.10;;;;;;;;;;5096440;28;20035;-66
2024/02/23 07:34:14;;;;;;;0.10;0.10;;;;;;;;;;5096634;28;20028;-67
2024/02/23 07:36:39;;;;;;;0.30;0.30;;;;;;;;;;5096358;28;20248;-67
2024/02/23 07:39:05;;;;;;;0.03;0.03;;;;;;;;;;5096331;28;20153;-68
2024/02/23 07:41:30;;;;;;;0.00;0.00;;;;;;;;;;5096217;28;20016;-77
2024/02/23 07:43:55;;;;;;;0.10;0.10;;;;;;;;;;5096222;28;20024;-67
2024/02/23 07:46:22;;;;;;;0.10;0.10;;;;;;;;;;5096228;28;20103;-67
2024/02/23 07:48:48;;;;;;;0.00;0.00;;;;;;;;;;5096106;28;20245;-67
2024/02/23 07:51:13;;;;;;;0.10;0.10;;;;;;;;;;5095636;28;20525;-67
2024/02/23 07:53:38;;;;;;;0.85;0.75;;;;;;;;;;5092288;28;20232;-67
2024/02/23 07:56:04;;;;;;;0.00;0.00;;;;;;;;;;5098523;28;20034;-67
2024/02/23 07:58:29;;;;;;;0.05;0.05;;;;;;;;;;5074947;28;20027;-67
2024/02/23 08:00:55;;;;;;;0.03;0.03;;;;;;;;;;5074982;28;20112;-68
2024/02/23 08:03:20;;;;;;;0.10;0.10;;;;;;;;;;5074785;28;20362;-68
2024/02/23 08:05:45;;;;;;;0.10;0.10;;;;;;;;;;5074601;28;20285;-67
2024/02/23 08:08:11;;;;;;;0.08;0.08;;;;;;;;;;5074950;28;20031;-67
2024/02/23 08:10:36;;;;;;;0.00;0.00;;;;;;;;;;5074253;28;20024;-68
2024/02/23 08:13:01;;;;;;;0.10;0.10;;;;;;;;;;5075019;28;20060;-68
2024/02/23 08:15:26;;;;;;;0.00;0.00;;;;;;;;;;5074842;28;20579;-68
2024/02/23 08:17:52;;;;;;;0.10;0.10;;;;;;;;;;5074812;28;20721;-66
2024/02/23 08:20:17;;;;;;;0.00;0.00;;;;;;;;;;5074841;28;20606;-66
2024/02/23 08:22:42;;;;;;;0.10;0.10;;;;;;;;;;5074739;28;20028;-67
2024/02/23 08:25:07;;;;;;;0.10;0.10;;;;;;;;;;5074191;28;20016;-66
2024/02/23 08:27:33;;;;;;;0.10;0.10;;;;;;;;;;5074277;28;20029;-66
2024/02/23 08:29:59;;;;;;;0.00;0.00;;;;;;;;;;5074434;28;20492;-66
2024/02/23 08:32:24;;;;;;;0.00;0.00;;;;;;;;;;5074900;28;20020;-66
2024/02/23 08:34:50;;;;;;;0.10;0.10;;;;;;;;;;5079606;28;20503;-67
2024/02/23 08:37:15;;;;;;;0.00;0.00;;;;;;;;;;5095066;28;20054;-67
2024/02/23 08:39:40;;;;;;;0.00;0.00;;;;;;;;;;5085013;28;20029;-67
2024/02/23 08:42:05;;;;;;;0.10;0.10;;;;;;;;;;5074936;28;20085;-67
2024/02/23 08:44:31;;;;;;;0.10;0.10;;;;;;;;;;5074921;28;20257;-67
2024/02/23 08:46:56;;;;;;;0.10;0.10;;;;;;;;;;5075022;28;20241;-68
2024/02/23 08:49:21;;;;;;;0.00;0.00;;;;;;;;;;5074843;28;20357;-68
2024/02/23 08:51:46;;;;;;;0.00;0.00;;;;;;;;;;5074623;28;20317;-67
2024/02/23 08:54:12;;;;;;;0.00;0.00;;;;;;;;;;5074867;28;20029;-67
2024/02/23 08:56:38;;;;;;;0.10;0.10;;;;;;;;;;5074861;28;20299;-67
2024/02/23 08:59:04;;;;;;;0.00;0.00;;;;;;;;;;5074873;28;20023;-67
2024/02/23 09:01:29;;;;;;;0.00;0.00;;;;;;;;;;5074596;28;20387;-67
2024/02/23 09:03:54;;;;;;;0.00;0.00;;;;;;;;;;5074746;28;20020;-67
2024/02/23 09:06:19;;;;;;;0.00;0.00;;;;;;;;;;5074520;28;20086;-67
2024/02/23 09:08:45;;;;;;;0.00;0.00;;;;;;;;;;5074462;28;20020;-67
2024/02/23 09:11:13;;;;;;;0.00;0.00;;;;;;;;;;5074218;28;20332;-67
2024/02/23 09:13:38;;;;;;;0.10;0.10;;;;;;;;;;5074566;28;20043;-67
2024/02/23 09:16:03;;;;;;;0.00;0.00;;;;;;;;;;5074167;28;20063;-67
2024/02/23 09:18:29;;;;;;;0.03;0.03;;;;;;;;;;5074259;28;20013;-67
2024/02/23 09:20:54;;;;;;;0.00;0.00;;;;;;;;;;5074223;28;20021;-67
2024/02/23 09:23:19;;;;;;;0.00;0.00;;;;;;;;;;5074207;28;20275;-67
2024/02/23 09:25:45;;;;;;;0.00;0.00;;;;;;;;;;5074059;28;20721;-67
2024/02/23 09:28:11;;;;;;;0.10;0.10;;;;;;;;;;5087160;28;20253;-67
2024/02/23 09:30:36;;;;;;;0.10;0.10;;;;;;;;;;5094184;28;20024;-66
2024/02/23 09:33:01;;;;;;;0.20;0.20;;;;;;;;;;5094191;28;20028;-67
2024/02/23 09:35:27;;;;;;;0.10;0.10;;;;;;;;;;5094122;28;20502;-67
2024/02/23 09:37:52;;;;;;;0.00;0.00;;;;;;;;;;5093135;28;20283;-67
2024/02/23 09:40:17;;;;;;;0.00;0.00;;;;;;;;;;5093637;28;20329;-67
2024/02/23 09:42:43;;;;;;;0.03;0.03;;;;;;;;;;5094127;28;20028;-66
2024/02/23 09:45:11;;;;;;;0.10;0.10;;;;;;;;;;5094258;28;20520;-67
2024/02/23 09:47:36;;;;;;;0.10;0.10;;;;;;;;;;5094149;28;20102;-67
2024/02/23 09:50:03;;;;;;;0.10;0.10;;;;;;;;;;5093755;28;20134;-67
2024/02/23 09:52:29;;;;;;;0.10;0.10;;;;;;;;;;5093837;28;20111;-66
2024/02/23 09:54:55;;;;;;;0.00;0.00;;;;;;;;;;5093736;28;20095;-67
2024/02/23 09:57:20;;;;;;;0.00;0.00;;;;;;;;;;5094033;28;20030;-67
2024/02/23 09:59:48;;;;;;;0.45;0.45;;;;;;;;;;5093729;28;20437;-66
2024/02/23 10:02:15;;;;;;;0.00;0.00;;;;;;;;;;5093959;28;20099;-66
2024/02/23 10:04:41;;;;;;;0.10;0.10;;;;;;;;;;5093678;28;20420;-67
2024/02/23 10:07:06;;;;;;;0.10;0.10;;;;;;;;;;5093645;28;20016;-67
2024/02/23 10:09:32;;;;;;;0.00;0.00;;;;;;;;;;5093839;28;20038;-67
2024/02/23 10:11:57;;;;;;;0.00;0.00;;;;;;;;;;5093448;28;20012;-66
2024/02/23 10:14:22;;;;;;;0.00;0.00;;;;;;;;;;5093487;28;20073;-66
2024/02/23 10:16:55;;;;;;;0.00;0.00;;;;;;;;;;5093610;28;20012;-66
2024/02/23 10:19:20;;;;;;;1.65;0.35;;;;;;;;;;5093403;28;20028;-67
2024/02/23 10:21:46;;;;;;;0.00;0.00;;;;;;;;;;5093739;28;20028;-66
2024/02/23 10:24:11;;;;;;;0.00;0.00;;;;;;;;;;5093732;28;20095;-66
2024/02/23 10:26:36;;;;;;;0.10;0.10;;;;;;;;;;5093386;28;20012;-67
2024/02/23 10:29:03;;;;;;;0.00;0.00;;;;;;;;;;5093409;28;20245;-66
2024/02/23 10:31:28;;;;;;;0.00;0.00;;;;;;;;;;5093622;28;20245;-66
2024/02/23 10:33:54;;;;;;;0.05;0.05;;;;;;;;;;5093622;28;20520;-67
2024/02/23 10:36:22;;;;;;;0.00;0.00;;;;;;;;;;5093271;28;20028;-66
2024/02/23 10:38:49;;;;;;;0.00;0.00;;;;;;;;;;5093333;28;20024;-67
2024/02/23 10:41:14;;;;;;;0.00;0.00;;;;;;;;;;5093498;28;20529;-66
2024/02/23 10:43:42;;;;;;;0.00;0.00;;;;;;;;;;5093235;28;20016;-66
2024/02/23 10:46:12;;;;;;;0.00;0.00;;;;;;;;;;5093451;28;20020;-67
2024/02/23 10:48:40;;;;;;;0.00;0.00;;;;;;;;;;5093456;28;20389;-67
2024/02/23 10:51:06;;;;;;;0.00;0.00;;;;;;;;;;5096383;28;20510;-66
2024/02/23 10:53:31;;;;;;;0.00;0.00;;;;;;;;;;5097275;28;20016;-66
2024/02/23 10:55:58;;;;;;;0.30;0.30;;;;;;;;;;5097027;28;20085;-67
2024/02/23 10:58:23;;;;;;;0.00;0.00;;;;;;;;;;5097383;28;20517;-67
2024/02/23 11:00:49;;;;;;;0.00;0.00;;;;;;;;;;5097141;28;20016;-67
2024/02/23 11:03:14;;;;;;;0.10;0.10;;;;;;;;;;5097359;28;20024;-67
2024/02/23 11:05:40;;;;;;;0.00;0.00;;;;;;;;;;5097194;28;20035;-66
2024/02/23 11:08:05;;;;;;;0.00;0.00;;;;;;;;;;5097005;28;20020;-67
2024/02/23 11:10:31;;;;;;;0.00;0.00;;;;;;;;;;5096958;28;20038;-66
2024/02/23 11:13:00;;;;;;;1.40;0.67;;;;;;;;;;5096906;28;20524;-67
2024/02/23 11:15:28;;;;;;;0.00;0.00;;;;;;;;;;5096748;28;20271;-67
2024/02/23 11:17:54;;;;;;;0.10;0.10;;;;;;;;;;5096811;28;20034;-67
2024/02/23 11:20:23;;;;;;;0.00;0.00;;;;;;;;;;5094403;28;20433;-67
2024/02/23 11:22:51;;;;;;;0.03;0.03;;;;;;;;;;5081353;28;20105;-66
2024/02/23 11:25:17;;;;;;;0.52;0.30;;;;;;;;;;5079806;28;20046;-66
2024/02/23 11:27:43;;;;;;;0.00;0.00;;;;;;;;;;5085047;28;20483;-66
2024/02/23 11:30:11;;;;;;;0.00;0.00;;;;;;;;;;5081192;28;20035;-67
2024/02/23 11:32:40;;;;;;;0.00;0.00;;;;;;;;;;5075243;28;20029;-67
2024/02/23 11:35:06;;;;;;;0.00;0.00;;;;;;;;;;5084910;28;20476;-66
2024/02/23 11:37:31;;;;;;;2.83;0.65;;;;;;;;;;5083243;28;20021;-67
2024/02/23 11:39:57;;;;;;;0.00;0.00;;;;;;;;;;5084175;28;20035;-67
2024/02/23 11:42:23;;;;;;;0.10;0.10;;;;;;;;;;5075353;28;20419;-67
2024/02/23 11:44:49;;;;;;;0.00;0.00;;;;;;;;;;5083796;28;20371;-67
2024/02/23 11:47:16;;;;;;;0.00;0.00;;;;;;;;;;5075058;28;20028;-66
2024/02/23 11:49:42;;;;;;;0.00;0.00;;;;;;;;;;5087058;28;20438;-66
2024/02/23 11:52:07;;;;;;;0.00;0.00;;;;;;;;;;5078117;28;20024;-66
2024/02/23 11:54:33;;;;;;;0.00;0.00;;;;;;;;;;5075126;28;20121;-67
2024/02/23 11:57:00;;;;;;;0.00;0.00;;;;;;;;;;5075350;28;20027;-66
2024/02/23 11:59:25;;;;;;;0.00;0.00;;;;;;;;;;5074795;28;20020;-66
2024/02/23 12:01:50;;;;;;;0.00;0.00;;;;;;;;;;5092349;28;20034;-66
2024/02/23 12:04:16;;;;;;;0.00;0.00;;;;;;;;;;5077798;28;20012;-67
2024/02/23 12:06:45;;;;;;;0.00;0.00;;;;;;;;;;5074661;28;20021;-67
2024/02/23 12:09:12;;;;;;;0.17;0.17;;;;;;;;;;5078197;28;20031;-67
2024/02/23 12:11:38;;;;;;;0.00;0.00;;;;;;;;;;5079053;28;20016;-66
2024/02/23 12:14:07;;;;;;;0.00;0.00;;;;;;;;;;5082327;28;20153;-66
2024/02/23 12:16:33;;;;;;;0.00;0.00;;;;;;;;;;5083283;28;20032;-66
2024/02/23 12:18:58;;;;;;;0.10;0.10;;;;;;;;;;5086997;28;20016;-67
2024/02/23 12:21:24;;;;;;;0.00;0.00;;;;;;;;;;5093495;28;20028;-67
2024/02/23 12:23:50;;;;;;;0.00;0.00;;;;;;;;;;5074589;28;20332;-66
2024/02/23 12:26:16;;;;;;;0.00;0.00;;;;;;;;;;5074811;28;20123;-67
2024/02/23 12:28:42;;;;;;;0.10;0.10;;;;;;;;;;5074531;28;20047;-66
2024/02/23 12:31:07;;;;;;;0.00;0.00;;;;;;;;;;5077345;28;20028;-66
2024/02/23 12:33:40;;;;;;;0.00;0.00;;;;;;;;;;5094157;28;20016;-66
2024/02/23 12:36:05;;;;;;;0.00;0.00;;;;;;;;;;5074174;28;20020;-67
2024/02/23 12:38:31;;;;;;;0.10;0.10;;;;;;;;;;5079880;28;20521;-66
2024/02/23 12:40:56;;;;;;;0.05;0.05;;;;;;;;;;5093422;28;20096;-66
2024/02/23 12:43:24;;;;;;;0.00;0.00;;;;;;;;;;5083534;28;20031;-67
2024/02/23 12:45:49;;;;;;;0.10;0.10;;;;;;;;;;5074674;28;20067;-67
2024/02/23 12:48:15;;;;;;;0.00;0.00;;;;;;;;;;5074886;28;20025;-67
2024/02/23 12:50:41;;;;;;;0.00;0.00;;;;;;;;;;5073191;28;20055;-67
2024/02/23 12:53:06;;;;;;;3.03;0.43;;;;;;;;;;5077837;28;20036;-66
2024/02/23 12:55:32;;;;;;;0.00;0.00;;;;;;;;;;5074429;28;20036;-78
2024/02/23 12:57:57;;;;;;;0.00;0.00;;;;;;;;;;5087482;28;20079;-67
2024/02/23 13:00:22;;;;;;;0.03;0.03;;;;;;;;;;5092762;28;20016;-67
2024/02/23 13:02:47;;;;;;;0.00;0.00;;;;;;;;;;5087623;28;20252;-67
2024/02/23 13:05:13;;;;;;;0.50;0.50;;;;;;;;;;5094180;28;20280;-67
2024/02/23 13:07:40;;;;;;;0.10;0.10;;;;;;;;;;5093769;28;20724;-67
2024/02/23 13:10:06;;;;;;;0.03;0.03;;;;;;;;;;5092256;28;20295;-67
2024/02/23 13:12:31;;;;;;;0.00;0.00;;;;;;;;;;5078726;28;20028;-67
2024/02/23 13:14:56;;;;;;;0.05;0.05;;;;;;;;;;5074104;28;20032;-67
2024/02/23 13:17:21;;;;;;;0.00;0.00;;;;;;;;;;5082611;28;20024;-76
2024/02/23 13:19:47;;;;;;;0.00;0.00;;;;;;;;;;5082484;28;20253;-78
2024/02/23 13:22:12;;;;;;;0.00;0.00;;;;;;;;;;5075222;28;20052;-67
2024/02/23 13:24:40;;;;;;;0.00;0.00;;;;;;;;;;5069115;28;20256;-67
2024/02/23 13:27:05;;;;;;;0.00;0.00;;;;;;;;;;5085336;28;20603;-67
2024/02/23 13:29:30;;;;;;;0.00;0.00;;;;;;;;;;5073927;28;20020;-67
2024/02/23 13:31:55;;;;;;;0.00;0.00;;;;;;;;;;5074037;28;20253;-66
2024/02/23 13:34:20;;;;;;;0.17;0.17;;;;;;;;;;5073973;28;20249;-78
2024/02/23 13:36:46;;;;;;;0.00;0.00;;;;;;;;;;5055943;28;20241;-68
2024/02/23 13:39:12;;;;;;;0.08;0.08;;;;;;;;;;5074000;28;20285;-68
2024/02/23 13:41:38;;;;;;;0.00;0.00;;;;;;;;;;5055829;28;20048;-68
2024/02/23 13:44:04;;;;;;;0.00;0.00;;;;;;;;;;5085889;28;20027;-68
2024/02/23 13:46:30;;;;;;;0.00;0.00;;;;;;;;;;5093235;28;20077;-68
2024/02/23 13:49:05;;;;;;;0.00;0.00;;;;;;;;;;5093253;28;20028;-68
2024/02/23 13:51:31;;;;;;;0.00;0.00;;;;;;;;;;5093052;28;20113;-68
2024/02/23 13:53:56;;;;;;;0.00;0.00;;;;;;;;;;5091699;28;20471;-68
2024/02/23 13:56:21;;;;;;;0.00;0.00;;;;;;;;;;5093175;28;20380;-68
2024/02/23 13:58:48;;;;;;;0.03;0.03;;;;;;;;;;5093176;28;20279;-68
2024/02/23 14:01:13;;;;;;;0.05;0.05;;;;;;;;;;5092690;28;20300;-68
2024/02/23 14:03:38;;;;;;;0.00;0.00;;;;;;;;;;5081934;28;20048;-68
2024/02/23 14:06:03;;;;;;;0.00;0.00;;;;;;;;;;5073386;28;20032;-68
2024/02/23 14:08:29;;;;;;;0.00;0.00;;;;;;;;;;5073470;28;20261;-66
2024/02/23 14:10:54;;;;;;;0.00;0.00;;;;;;;;;;5073288;28;20024;-66
2024/02/23 14:13:20;;;;;;;0.00;0.00;;;;;;;;;;5073208;28;20265;-66
2024/02/23 14:15:45;;;;;;;0.00;0.00;;;;;;;;;;5089385;28;20059;-66
2024/02/23 14:18:10;;;;;;;0.00;0.00;;;;;;;;;;5091488;28;20077;-67
2024/02/23 14:20:35;;;;;;;0.05;0.05;;;;;;;;;;5092842;28;20024;-66
2024/02/23 14:23:01;;;;;;;0.13;0.13;;;;;;;;;;5092109;28;20410;-67
2024/02/23 14:25:26;;;;;;;0.00;0.00;;;;;;;;;;5091244;28;20303;-66
2024/02/23 14:27:51;;;;;;;0.00;0.00;;;;;;;;;;5077908;28;20025;-66
2024/02/23 14:30:17;;;;;;;0.03;0.03;;;;;;;;;;5073097;28;20357;-66
2024/02/23 14:32:42;;;;;;;0.00;0.00;;;;;;;;;;5073055;28;20031;-66